sensor_id;sensor_type;location;lat;lon;timestamp;pressure;altitude;pressure_sealevel;temperature;humidity
54453;BME280;40363;52.270;10.546;2023-03-03T00:02:23;78746.72;;;-147.06;100.00
54453;BME280;40363;52.270;10.546;2023-03-03T00:04:49;78742.63;;;-147.06;100.00
54453;BME280;40363;52.270;10.546;2023-03-03T00:07:17;78750.84;;;-147.06;100.00
54453;BME280;40363;52.270;10.546;2023-03-03T00:09:47;78769.34;;;-147.06;100.00
54453;BME280;40363;52.270;10.546;2023-03-03T00:12:20;78746.72;;;-147.06;100.00
54453;BME280;40363;52.270;10.546;2023-03-03T00:14:48;78781.69;;;-147.06;100.00
54453;BME280;40363;52.270;10.546;2023-03-03T00:17:20;78787.88;;;-147.06;100.00
54453;BME280;40363;52.270;10.546;2023-03-03T00:19:47;78775.53;;;-147.06;100.00
54453;BME280;40363;52.270;10.546;2023-03-03T00:22:24;78775.53;;;-147.06;100.00
54453;BME280;40363;52.270;10.546;2023-03-03T00:24:52;78754.97;;;-147.06;100.00
54453;BME280;40363;52.270;10.546;2023-03-03T00:27:28;78746.72;;;-147.06;100.00
54453;BME280;40363;52.270;10.546;2023-03-03T00:29:55;78763.19;;;-147.06;100.00
54453;BME280;40363;52.270;10.546;2023-03-03T00:32:24;78771.41;;;-147.06;100.00
54453;BME280;40363;52.270;10.546;2023-03-03T00:34:53;78757.00;;;-147.06;100.00
54453;BME280;40363;52.270;10.546;2023-03-03T00:37:27;78746.72;;;-147.06;100.00
54453;BME280;40363;52.270;10.546;2023-03-03T00:40:01;78752.91;;;-147.06;100.00
54453;BME280;40363;52.270;10.546;2023-03-03T00:42:35;78740.56;;;-147.06;100.00
54453;BME280;40363;52.270;10.546;2023-03-03T00:45:17;78746.72;;;-147.06;100.00
54453;BME280;40363;52.270;10.546;2023-03-03T00:47:47;78754.97;;;-147.06;100.00
54453;BME280;40363;52.270;10.546;2023-03-03T00:50:26;78752.91;;;-147.06;100.00
54453;BME280;40363;52.270;10.546;2023-03-03T00:53:00;78742.63;;;-147.06;100.00
54453;BME280;40363;52.270;10.546;2023-03-03T00:55:27;78750.84;;;-147.06;100.00
54453;BME280;40363;52.270;10.546;2023-03-03T01:00:24;78736.44;;;-147.06;100.00
54453;BME280;40363;52.270;10.546;2023-03-03T01:02:51;78730.28;;;-147.06;100.00
54453;BME280;40363;52.270;10.546;2023-03-03T01:05:19;78730.28;;;-147.06;100.00
54453;BME280;40363;52.270;10.546;2023-03-03T01:07:46;78728.22;;;-147.06;100.00
54453;BME280;40363;52.270;10.546;2023-03-03T01:10:14;78734.38;;;-147.06;100.00
54453;BME280;40363;52.270;10.546;2023-03-03T01:12:40;78750.84;;;-147.06;100.00
54453;BME280;40363;52.270;10.546;2023-03-03T01:15:09;78730.28;;;-147.06;100.00
54453;BME280;40363;52.270;10.546;2023-03-03T01:17:36;78726.16;;;-147.06;100.00
54453;BME280;40363;52.270;10.546;2023-03-03T01:20:05;78726.16;;;-147.06;100.00
54453;BME280;40363;52.270;10.546;2023-03-03T01:22:32;78724.09;;;-147.06;100.00
54453;BME280;40363;52.270;10.546;2023-03-03T01:24:58;78713.81;;;-147.06;100.00
54453;BME280;40363;52.270;10.546;2023-03-03T01:27:26;78724.09;;;-147.06;100.00
54453;BME280;40363;52.270;10.546;2023-03-03T01:29:53;78754.97;;;-147.06;100.00
54453;BME280;40363;52.270;10.546;2023-03-03T01:32:20;78734.38;;;-147.06;100.00
54453;BME280;40363;52.270;10.546;2023-03-03T01:34:47;78732.34;;;-147.06;100.00
54453;BME280;40363;52.270;10.546;2023-03-03T01:37:14;78728.22;;;-147.06;100.00
54453;BME280;40363;52.270;10.546;2023-03-03T01:39:40;78722.06;;;-147.06;100.00
54453;BME280;40363;52.270;10.546;2023-03-03T01:42:07;78717.94;;;-147.06;100.00
54453;BME280;40363;52.270;10.546;2023-03-03T01:44:35;78715.88;;;-147.06;100.00
54453;BME280;40363;52.270;10.546;2023-03-03T01:47:04;78717.94;;;-147.06;100.00
54453;BME280;40363;52.270;10.546;2023-03-03T01:49:35;78724.09;;;-147.06;100.00
54453;BME280;40363;52.270;10.546;2023-03-03T01:52:10;78728.22;;;-147.06;100.00
54453;BME280;40363;52.270;10.546;2023-03-03T01:54:41;78720.00;;;-147.06;100.00
54453;BME280;40363;52.270;10.546;2023-03-03T01:57:12;78693.25;;;-147.06;100.00
54453;BME280;40363;52.270;10.546;2023-03-03T01:59:43;78697.38;;;-147.06;100.00
54453;BME280;40363;52.270;10.546;2023-03-03T02:02:11;78724.09;;;-147.06;100.00
54453;BME280;40363;52.270;10.546;2023-03-03T02:04:38;78717.94;;;-147.06;100.00
54453;BME280;40363;52.270;10.546;2023-03-03T02:07:07;78705.59;;;-147.06;100.00
54453;BME280;40363;52.270;10.546;2023-03-03T02:09:40;78689.16;;;-147.06;100.00
54453;BME280;40363;52.270;10.546;2023-03-03T02:12:11;78695.31;;;-147.06;100.00
54453;BME280;40363;52.270;10.546;2023-03-03T02:14:41;78701.50;;;-147.06;100.00
54453;BME280;40363;52.270;10.546;2023-03-03T02:17:07;78701.50;;;-147.06;100.00
54453;BME280;40363;52.270;10.546;2023-03-03T02:19:41;78693.25;;;-147.06;100.00
54453;BME280;40363;52.270;10.546;2023-03-03T02:22:09;78693.25;;;-147.06;100.00
54453;BME280;40363;52.270;10.546;2023-03-03T02:24:39;78697.38;;;-147.06;100.00
54453;BME280;40363;52.270;10.546;2023-03-03T02:27:09;78693.25;;;-147.06;100.00
54453;BME280;40363;52.270;10.546;2023-03-03T02:29:36;78685.03;;;-147.06;100.00
54453;BME280;40363;52.270;10.546;2023-03-03T02:32:03;78689.16;;;-147.06;100.00
54453;BME280;40363;52.270;10.546;2023-03-03T02:34:29;78689.16;;;-147.06;100.00
54453;BME280;40363;52.270;10.546;2023-03-03T02:36:56;78707.66;;;-147.06;100.00
54453;BME280;40363;52.270;10.546;2023-03-03T02:39:24;78697.38;;;-147.06;100.00
54453;BME280;40363;52.270;10.546;2023-03-03T02:41:57;78680.91;;;-147.06;100.00
54453;BME280;40363;52.270;10.546;2023-03-03T02:44:30;78687.09;;;-147.06;100.00
54453;BME280;40363;52.270;10.546;2023-03-03T02:46:58;78672.69;;;-147.06;100.00
54453;BME280;40363;52.270;10.546;2023-03-03T02:49:26;78664.47;;;-147.06;100.00
54453;BME280;40363;52.270;10.546;2023-03-03T02:51:54;78668.59;;;-147.06;100.00
54453;BME280;40363;52.270;10.546;2023-03-03T02:54:23;78658.31;;;-147.06;100.00
54453;BME280;40363;52.270;10.546;2023-03-03T02:56:50;78664.47;;;-147.06;100.00
54453;BME280;40363;52.270;10.546;2023-03-03T02:59:18;78656.25;;;-147.06;100.00
54453;BME280;40363;52.270;10.546;2023-03-03T03:01:46;78654.19;;;-147.06;100.00
54453;BME280;40363;52.270;10.546;2023-03-03T03:04:15;78656.25;;;-147.06;100.00
54453;BME280;40363;52.270;10.546;2023-03-03T03:06:42;78664.47;;;-147.06;100.00
54453;BME280;40363;52.270;10.546;2023-03-03T03:09:09;78658.31;;;-147.06;100.00
54453;BME280;40363;52.270;10.546;2023-03-03T03:11:36;78662.41;;;-147.06;100.00
54453;BME280;40363;52.270;10.546;2023-03-03T03:14:03;78656.25;;;-147.06;100.00
54453;BME280;40363;52.270;10.546;2023-03-03T03:16:31;78662.41;;;-147.06;100.00
54453;BME280;40363;52.270;10.546;2023-03-03T03:19:00;78648.00;;;-147.06;100.00
54453;BME280;40363;52.270;10.546;2023-03-03T03:21:27;78641.84;;;-147.06;100.00
54453;BME280;40363;52.270;10.546;2023-03-03T03:23:53;78654.19;;;-147.06;100.00
54453;BME280;40363;52.270;10.546;2023-03-03T03:26:20;78637.72;;;-147.06;100.00
54453;BME280;40363;52.270;10.546;2023-03-03T03:28:47;78635.69;;;-147.06;100.00
54453;BME280;40363;52.270;10.546;2023-03-03T03:31:14;78652.13;;;-147.06;100.00
54453;BME280;40363;52.270;10.546;2023-03-03T03:33:41;78648.00;;;-147.06;100.00
54453;BME280;40363;52.270;10.546;2023-03-03T03:36:09;78643.91;;;-147.06;100.00
54453;BME280;40363;52.270;10.546;2023-03-03T03:38:36;78652.13;;;-147.06;100.00
54453;BME280;40363;52.270;10.546;2023-03-03T03:41:05;78637.72;;;-147.06;100.00
54453;BME280;40363;52.270;10.546;2023-03-03T03:43:32;78645.97;;;-147.06;100.00
54453;BME280;40363;52.270;10.546;2023-03-03T03:45:58;78654.19;;;-147.06;100.00
54453;BME280;40363;52.270;10.546;2023-03-03T03:48:25;78650.06;;;-147.06;100.00
54453;BME280;40363;52.270;10.546;2023-03-03T03:50:52;78650.06;;;-147.06;100.00
54453;BME280;40363;52.270;10.546;2023-03-03T03:53:20;78639.78;;;-147.06;100.00
54453;BME280;40363;52.270;10.546;2023-03-03T03:55:46;78639.78;;;-147.06;100.00
54453;BME280;40363;52.270;10.546;2023-03-03T03:58:13;78660.34;;;-147.06;100.00
54453;BME280;40363;52.270;10.546;2023-03-03T04:00:42;78650.06;;;-147.06;100.00
54453;BME280;40363;52.270;10.546;2023-03-03T04:03:09;78652.13;;;-147.06;100.00
54453;BME280;40363;52.270;10.546;2023-03-03T04:05:35;78658.31;;;-147.06;100.00
54453;BME280;40363;52.270;10.546;2023-03-03T04:08:02;78662.41;;;-147.06;100.00
54453;BME280;40363;52.270;10.546;2023-03-03T04:10:30;78652.13;;;-147.06;100.00
54453;BME280;40363;52.270;10.546;2023-03-03T04:12:57;78666.53;;;-147.06;100.00
54453;BME280;40363;52.270;10.546;2023-03-03T04:15:24;78678.88;;;-147.06;100.00
54453;BME280;40363;52.270;10.546;2023-03-03T04:17:50;78662.41;;;-147.06;100.00
54453;BME280;40363;52.270;10.546;2023-03-03T04:20:17;78660.34;;;-147.06;100.00
54453;BME280;40363;52.270;10.546;2023-03-03T04:22:44;78668.59;;;-147.06;100.00
54453;BME280;40363;52.270;10.546;2023-03-03T04:25:13;78668.59;;;-147.06;100.00
54453;BME280;40363;52.270;10.546;2023-03-03T04:27:42;78664.47;;;-147.06;100.00
54453;BME280;40363;52.270;10.546;2023-03-03T04:30:10;78662.41;;;-147.06;100.00
54453;BME280;40363;52.270;10.546;2023-03-03T04:32:37;78668.59;;;-147.06;100.00
54453;BME280;40363;52.270;10.546;2023-03-03T04:35:04;78672.69;;;-147.06;100.00
54453;BME280;40363;52.270;10.546;2023-03-03T04:37:31;78672.69;;;-147.06;100.00
54453;BME280;40363;52.270;10.546;2023-03-03T04:39:57;78672.69;;;-147.06;100.00
54453;BME280;40363;52.270;10.546;2023-03-03T04:42:24;78676.81;;;-147.06;100.00
54453;BME280;40363;52.270;10.546;2023-03-03T04:44:53;78668.59;;;-147.06;100.00
54453;BME280;40363;52.270;10.546;2023-03-03T04:47:20;78670.63;;;-147.06;100.00
54453;BME280;40363;52.270;10.546;2023-03-03T04:49:47;78662.41;;;-147.06;100.00
54453;BME280;40363;52.270;10.546;2023-03-03T04:52:13;78660.34;;;-147.06;100.00
54453;BME280;40363;52.270;10.546;2023-03-03T04:54:40;78664.47;;;-147.06;100.00
54453;BME280;40363;52.270;10.546;2023-03-03T04:57:07;78664.47;;;-147.06;100.00
54453;BME280;40363;52.270;10.546;2023-03-03T04:59:34;78689.16;;;-147.06;100.00
54453;BME280;40363;52.270;10.546;2023-03-03T05:02:02;78689.16;;;-147.06;100.00
54453;BME280;40363;52.270;10.546;2023-03-03T05:04:29;78682.97;;;-147.06;100.00
54453;BME280;40363;52.270;10.546;2023-03-03T05:06:56;78676.81;;;-147.06;100.00
54453;BME280;40363;52.270;10.546;2023-03-03T05:09:22;78682.97;;;-147.06;100.00
54453;BME280;40363;52.270;10.546;2023-03-03T05:11:49;78676.81;;;-147.06;100.00
54453;BME280;40363;52.270;10.546;2023-03-03T05:14:16;78687.09;;;-147.06;100.00
54453;BME280;40363;52.270;10.546;2023-03-03T05:16:42;78678.88;;;-147.06;100.00
54453;BME280;40363;52.270;10.546;2023-03-03T05:19:10;78668.59;;;-147.06;100.00
54453;BME280;40363;52.270;10.546;2023-03-03T05:21:37;78672.69;;;-147.06;100.00
54453;BME280;40363;52.270;10.546;2023-03-03T05:24:06;78660.34;;;-147.06;100.00
54453;BME280;40363;52.270;10.546;2023-03-03T05:26:33;78666.53;;;-147.06;100.00
54453;BME280;40363;52.270;10.546;2023-03-03T05:28:59;78664.47;;;-147.06;100.00
54453;BME280;40363;52.270;10.546;2023-03-03T05:31:26;78672.69;;;-147.06;100.00
54453;BME280;40363;52.270;10.546;2023-03-03T05:33:53;78654.19;;;-147.06;100.00
54453;BME280;40363;52.270;10.546;2023-03-03T05:36:21;78672.69;;;-147.06;100.00
54453;BME280;40363;52.270;10.546;2023-03-03T05:38:48;78656.25;;;-147.06;100.00
54453;BME280;40363;52.270;10.546;2023-03-03T05:41:14;78660.34;;;-147.06;100.00
54453;BME280;40363;52.270;10.546;2023-03-03T05:43:41;78660.34;;;-147.06;100.00
54453;BME280;40363;52.270;10.546;2023-03-03T05:46:08;78652.13;;;-147.06;100.00
54453;BME280;40363;52.270;10.546;2023-03-03T05:48:35;78674.75;;;-147.06;100.00
54453;BME280;40363;52.270;10.546;2023-03-03T05:51:02;78660.34;;;-147.06;100.00
54453;BME280;40363;52.270;10.546;2023-03-03T05:53:30;78654.19;;;-147.06;100.00
54453;BME280;40363;52.270;10.546;2023-03-03T05:55:56;78662.41;;;-147.06;100.00
54453;BME280;40363;52.270;10.546;2023-03-03T05:58:23;78668.59;;;-147.06;100.00
54453;BME280;40363;52.270;10.546;2023-03-03T06:00:49;78674.75;;;-147.06;100.00
54453;BME280;40363;52.270;10.546;2023-03-03T06:03:16;78666.53;;;-147.06;100.00
54453;BME280;40363;52.270;10.546;2023-03-03T06:05:43;78662.41;;;-147.06;100.00
54453;BME280;40363;52.270;10.546;2023-03-03T06:08:09;78654.19;;;-147.06;100.00
54453;BME280;40363;52.270;10.546;2023-03-03T06:10:37;78664.47;;;-147.06;100.00
54453;BME280;40363;52.270;10.546;2023-03-03T06:13:04;78656.25;;;-147.06;100.00
54453;BME280;40363;52.270;10.546;2023-03-03T06:15:30;78645.97;;;-147.06;100.00
54453;BME280;40363;52.270;10.546;2023-03-03T06:17:57;78660.34;;;-147.06;100.00
54453;BME280;40363;52.270;10.546;2023-03-03T06:20:23;78652.13;;;-147.06;100.00
54453;BME280;40363;52.270;10.546;2023-03-03T06:22:50;78652.13;;;-147.06;100.00
54453;BME280;40363;52.270;10.546;2023-03-03T06:25:17;78648.00;;;-147.06;100.00
54453;BME280;40363;52.270;10.546;2023-03-03T06:27:45;78648.00;;;-147.06;100.00
54453;BME280;40363;52.270;10.546;2023-03-03T06:30:12;78654.19;;;-147.06;100.00
54453;BME280;40363;52.270;10.546;2023-03-03T06:32:39;78658.31;;;-147.06;100.00
54453;BME280;40363;52.270;10.546;2023-03-03T06:35:06;78639.78;;;-147.06;100.00
54453;BME280;40363;52.270;10.546;2023-03-03T06:37:32;78637.72;;;-147.06;100.00
54453;BME280;40363;52.270;10.546;2023-03-03T06:39:59;78648.00;;;-147.06;100.00
54453;BME280;40363;52.270;10.546;2023-03-03T06:42:25;78633.63;;;-147.06;100.00
54453;BME280;40363;52.270;10.546;2023-03-03T06:44:54;78627.44;;;-147.06;100.00
54453;BME280;40363;52.270;10.546;2023-03-03T06:47:20;78623.34;;;-147.06;100.00
54453;BME280;40363;52.270;10.546;2023-03-03T06:49:47;78639.78;;;-147.06;100.00
54453;BME280;40363;52.270;10.546;2023-03-03T06:52:17;78648.00;;;-147.06;100.00
54453;BME280;40363;52.270;10.546;2023-03-03T06:54:44;78641.84;;;-147.06;100.00
54453;BME280;40363;52.270;10.546;2023-03-03T06:57:24;78627.44;;;-147.06;100.00
54453;BME280;40363;52.270;10.546;2023-03-03T06:59:54;78621.28;;;-147.06;100.00
54453;BME280;40363;52.270;10.546;2023-03-03T07:02:21;78627.44;;;-147.06;100.00
54453;BME280;40363;52.270;10.546;2023-03-03T07:04:48;78631.56;;;-147.06;100.00
54453;BME280;40363;52.270;10.546;2023-03-03T07:07:16;78627.44;;;-147.06;100.00
54453;BME280;40363;52.270;10.546;2023-03-03T07:09:47;78627.44;;;-147.06;100.00
54453;BME280;40363;52.270;10.546;2023-03-03T07:12:15;78629.50;;;-147.06;100.00
54453;BME280;40363;52.270;10.546;2023-03-03T07:14:45;78631.56;;;-147.06;100.00
54453;BME280;40363;52.270;10.546;2023-03-03T07:17:16;78625.41;;;-147.06;100.00
54453;BME280;40363;52.270;10.546;2023-03-03T07:19:44;78615.13;;;-147.06;100.00
54453;BME280;40363;52.270;10.546;2023-03-03T07:22:15;78606.88;;;-147.06;100.00
54453;BME280;40363;52.270;10.546;2023-03-03T07:24:43;78606.88;;;-147.06;100.00
54453;BME280;40363;52.270;10.546;2023-03-03T07:27:13;78604.84;;;-147.06;100.00
54453;BME280;40363;52.270;10.546;2023-03-03T07:29:42;78615.13;;;-147.06;100.00
54453;BME280;40363;52.270;10.546;2023-03-03T07:32:21;78604.84;;;-147.06;100.00
54453;BME280;40363;52.270;10.546;2023-03-03T07:34:51;78604.84;;;-147.06;100.00
54453;BME280;40363;52.270;10.546;2023-03-03T07:37:28;78606.88;;;-147.06;100.00
54453;BME280;40363;52.270;10.546;2023-03-03T07:39:55;78598.66;;;-147.06;99.92
54453;BME280;40363;52.270;10.546;2023-03-03T07:42:25;78596.59;;;-147.06;99.80
54453;BME280;40363;52.270;10.546;2023-03-03T07:44:54;78602.78;;;-147.06;99.64
54453;BME280;40363;52.270;10.546;2023-03-03T07:47:24;78615.13;;;-147.06;99.69
54453;BME280;40363;52.270;10.546;2023-03-03T07:49:53;78606.88;;;-147.06;99.41
54453;BME280;40363;52.270;10.546;2023-03-03T07:52:26;78606.88;;;-147.06;99.62
54453;BME280;40363;52.270;10.546;2023-03-03T07:54:55;78615.13;;;-147.06;99.87
54453;BME280;40363;52.270;10.546;2023-03-03T07:57:24;78619.22;;;-147.06;100.00
54453;BME280;40363;52.270;10.546;2023-03-03T07:59:53;78608.94;;;-147.06;100.00
54453;BME280;40363;52.270;10.546;2023-03-03T08:02:37;78615.13;;;-147.06;99.90
54453;BME280;40363;52.270;10.546;2023-03-03T08:05:26;78623.34;;;-147.06;99.64
54453;BME280;40363;52.270;10.546;2023-03-03T08:07:55;78627.44;;;-147.06;99.77
54453;BME280;40363;52.270;10.546;2023-03-03T08:10:34;78615.13;;;-147.06;99.84
54453;BME280;40363;52.270;10.546;2023-03-03T08:13:08;78606.88;;;-147.06;99.60
54453;BME280;40363;52.270;10.546;2023-03-03T08:15:41;78611.00;;;-147.06;99.78
54453;BME280;40363;52.270;10.546;2023-03-03T08:18:18;78611.00;;;-147.06;99.83
54453;BME280;40363;52.270;10.546;2023-03-03T08:20:48;78606.88;;;-147.06;99.42
54453;BME280;40363;52.270;10.546;2023-03-03T08:23:16;78600.72;;;-147.06;99.55
54453;BME280;40363;52.270;10.546;2023-03-03T08:25:45;78611.00;;;-147.06;99.27
54453;BME280;40363;52.270;10.546;2023-03-03T08:28:13;78619.22;;;-147.06;99.64
54453;BME280;40363;52.270;10.546;2023-03-03T08:30:40;78608.94;;;-147.06;99.32
54453;BME280;40363;52.270;10.546;2023-03-03T08:33:07;78606.88;;;-147.06;98.75
54453;BME280;40363;52.270;10.546;2023-03-03T08:35:35;78590.44;;;-147.06;98.14
54453;BME280;40363;52.270;10.546;2023-03-03T08:38:02;78584.25;;;-147.06;98.00
54453;BME280;40363;52.270;10.546;2023-03-03T08:40:28;78576.03;;;-147.06;97.31
54453;BME280;40363;52.270;10.546;2023-03-03T08:42:55;78565.75;;;-147.06;96.36
54453;BME280;40363;52.270;10.546;2023-03-03T08:45:23;78563.69;;;-147.06;96.71
54453;BME280;40363;52.270;10.546;2023-03-03T08:47:50;78555.47;;;-147.06;96.86
54453;BME280;40363;52.270;10.546;2023-03-03T08:50:17;78545.19;;;-147.06;97.13
54453;BME280;40363;52.270;10.546;2023-03-03T08:52:45;78553.41;;;-147.06;97.52
54453;BME280;40363;52.270;10.546;2023-03-03T08:55:12;78573.97;;;-147.06;97.32
54453;BME280;40363;52.270;10.546;2023-03-03T08:57:39;78557.53;;;-147.06;97.35
54453;BME280;40363;52.270;10.546;2023-03-03T09:00:07;78553.41;;;-147.06;97.19
54453;BME280;40363;52.270;10.546;2023-03-03T09:02:34;78532.84;;;-147.06;97.00
54453;BME280;40363;52.270;10.546;2023-03-03T09:05:02;78534.91;;;-147.06;96.19
54453;BME280;40363;52.270;10.546;2023-03-03T09:07:29;78532.84;;;-147.06;96.04
54453;BME280;40363;52.270;10.546;2023-03-03T09:09:57;78545.19;;;-147.06;96.66
54453;BME280;40363;52.270;10.546;2023-03-03T09:12:28;78528.75;;;-147.06;96.17
54453;BME280;40363;52.270;10.546;2023-03-03T09:14:57;78549.31;;;-147.06;95.70
54453;BME280;40363;52.270;10.546;2023-03-03T09:17:29;78569.88;;;-147.06;95.89
54453;BME280;40363;52.270;10.546;2023-03-03T09:19:59;78573.97;;;-147.06;96.37
54453;BME280;40363;52.270;10.546;2023-03-03T09:22:28;78565.75;;;-147.06;96.21
54453;BME280;40363;52.270;10.546;2023-03-03T09:24:58;78536.97;;;-147.06;96.15
54453;BME280;40363;52.270;10.546;2023-03-03T09:27:28;78524.63;;;-147.06;95.57
54453;BME280;40363;52.270;10.546;2023-03-03T09:29:56;78516.41;;;-147.06;95.77
54453;BME280;40363;52.270;10.546;2023-03-03T09:32:32;78512.28;;;-147.06;95.61
54453;BME280;40363;52.270;10.546;2023-03-03T09:35:00;78502.00;;;-147.06;95.12
54453;BME280;40363;52.270;10.546;2023-03-03T09:37:48;78489.66;;;-147.06;94.94
54453;BME280;40363;52.270;10.546;2023-03-03T09:40:36;78495.84;;;-147.06;94.61
54453;BME280;40363;52.270;10.546;2023-03-03T09:43:08;78489.66;;;-147.06;94.24
54453;BME280;40363;52.270;10.546;2023-03-03T09:45:51;78475.28;;;-147.06;93.71
54453;BME280;40363;52.270;10.546;2023-03-03T09:48:31;78469.09;;;-147.06;93.66
54453;BME280;40363;52.270;10.546;2023-03-03T09:51:14;78465.00;;;-147.06;92.81
54453;BME280;40363;52.270;10.546;2023-03-03T09:54:01;78456.78;;;-147.06;92.53
54453;BME280;40363;52.270;10.546;2023-03-03T09:56:34;78442.38;;;-147.06;91.75
54453;BME280;40363;52.270;10.546;2023-03-03T09:59:19;78448.53;;;-147.06;91.02
54453;BME280;40363;52.270;10.546;2023-03-03T10:01:57;78444.44;;;-147.06;90.49
54453;BME280;40363;52.270;10.546;2023-03-03T10:07:37;78409.47;;;-147.06;88.59
54453;BME280;40363;52.270;10.546;2023-03-03T10:10:32;78399.19;;;-147.06;88.60
54453;BME280;40363;52.270;10.546;2023-03-03T10:13:20;78417.69;;;-147.06;89.33
54453;BME280;40363;52.270;10.546;2023-03-03T10:15:58;78403.31;;;-147.06;88.98
54453;BME280;40363;52.270;10.546;2023-03-03T10:18:38;78401.25;;;-147.06;89.24
54453;BME280;40363;52.270;10.546;2023-03-03T10:21:12;78401.25;;;-147.06;89.37
54453;BME280;40363;52.270;10.546;2023-03-03T10:23:52;78397.13;;;-147.06;88.76
54453;BME280;40363;52.270;10.546;2023-03-03T10:26:44;78397.13;;;-147.06;88.57
54453;BME280;40363;52.270;10.546;2023-03-03T10:29:25;78411.53;;;-147.06;89.00
54453;BME280;40363;52.270;10.546;2023-03-03T10:32:19;78405.34;;;-147.06;89.23
54453;BME280;40363;52.270;10.546;2023-03-03T10:34:59;78399.19;;;-147.06;89.46
54453;BME280;40363;52.270;10.546;2023-03-03T10:37:33;78407.41;;;-147.06;89.46
54453;BME280;40363;52.270;10.546;2023-03-03T10:40:12;78378.63;;;-147.06;89.43
54453;BME280;40363;52.270;10.546;2023-03-03T10:43:06;78372.47;;;-147.06;88.77
54453;BME280;40363;52.270;10.546;2023-03-03T10:45:56;78372.47;;;-147.06;88.35
54453;BME280;40363;52.270;10.546;2023-03-03T10:49:07;78368.34;;;-147.06;88.78
54453;BME280;40363;52.270;10.546;2023-03-03T10:51:47;78370.41;;;-147.06;89.44
54453;BME280;40363;52.270;10.546;2023-03-03T10:54:29;78384.78;;;-147.06;90.04
54453;BME280;40363;52.270;10.546;2023-03-03T10:57:02;78380.69;;;-147.06;90.36
54453;BME280;40363;52.270;10.546;2023-03-03T10:59:43;78364.22;;;-147.06;90.46
54453;BME280;40363;52.270;10.546;2023-03-03T11:02:20;78372.47;;;-147.06;90.27
54453;BME280;40363;52.270;10.546;2023-03-03T11:05:17;78364.22;;;-147.06;90.00
54453;BME280;40363;52.270;10.546;2023-03-03T11:07:49;78356.00;;;-147.06;90.28
54453;BME280;40363;52.270;10.546;2023-03-03T11:10:27;78333.38;;;-147.06;89.13
54453;BME280;40363;52.270;10.546;2023-03-03T11:13:04;78343.66;;;-147.06;88.69
54453;BME280;40363;52.270;10.546;2023-03-03T11:15:42;78335.44;;;-147.06;88.90
54453;BME280;40363;52.270;10.546;2023-03-03T11:18:22;78331.34;;;-147.06;88.33
54453;BME280;40363;52.270;10.546;2023-03-03T11:20:55;78327.22;;;-147.06;87.90
54453;BME280;40363;52.270;10.546;2023-03-03T11:26:33;78314.88;;;-147.06;87.94
54453;BME280;40363;52.270;10.546;2023-03-03T11:29:26;78323.09;;;-147.06;87.70
54453;BME280;40363;52.270;10.546;2023-03-03T11:31:57;78323.09;;;-147.06;87.65
54453;BME280;40363;52.270;10.546;2023-03-03T11:34:41;78331.34;;;-147.06;87.51
54453;BME280;40363;52.270;10.546;2023-03-03T11:37:15;78321.06;;;-147.06;87.29
54453;BME280;40363;52.270;10.546;2023-03-03T11:39:43;78319.00;;;-147.06;86.82
54453;BME280;40363;52.270;10.546;2023-03-03T11:42:16;78288.16;;;-147.06;85.99
54453;BME280;40363;52.270;10.546;2023-03-03T11:44:49;78286.09;;;-147.06;85.13
54453;BME280;40363;52.270;10.546;2023-03-03T11:47:21;78275.81;;;-147.06;85.36
54453;BME280;40363;52.270;10.546;2023-03-03T11:49:55;78273.75;;;-147.06;84.92
54453;BME280;40363;52.270;10.546;2023-03-03T11:52:31;78253.19;;;-147.06;84.65
54453;BME280;40363;52.270;10.546;2023-03-03T11:55:07;78251.13;;;-147.06;83.95
54453;BME280;40363;52.270;10.546;2023-03-03T11:57:40;78222.34;;;-147.06;82.90
54453;BME280;40363;52.270;10.546;2023-03-03T12:00:23;78249.09;;;-147.06;83.46
54453;BME280;40363;52.270;10.546;2023-03-03T12:03:01;78247.03;;;-147.06;84.40
54453;BME280;40363;52.270;10.546;2023-03-03T12:05:44;78240.84;;;-147.06;84.19
54453;BME280;40363;52.270;10.546;2023-03-03T12:08:26;78228.53;;;-147.06;84.09
54453;BME280;40363;52.270;10.546;2023-03-03T12:11:00;78234.69;;;-147.06;83.81
54453;BME280;40363;52.270;10.546;2023-03-03T12:13:39;78216.19;;;-147.06;83.16
54453;BME280;40363;52.270;10.546;2023-03-03T12:16:12;78224.41;;;-147.06;82.64
54453;BME280;40363;52.270;10.546;2023-03-03T12:18:53;78199.72;;;-147.06;82.59
54453;BME280;40363;52.270;10.546;2023-03-03T12:21:41;78195.63;;;-147.06;82.24
54453;BME280;40363;52.270;10.546;2023-03-03T12:24:25;78170.94;;;-147.06;82.01
54453;BME280;40363;52.270;10.546;2023-03-03T12:27:06;78166.81;;;-147.06;82.01
54453;BME280;40363;52.270;10.546;2023-03-03T12:29:40;78152.44;;;-147.06;81.51
54453;BME280;40363;52.270;10.546;2023-03-03T12:32:17;78148.31;;;-147.06;81.27
54453;BME280;40363;52.270;10.546;2023-03-03T12:34:51;78185.34;;;-147.06;81.18
54453;BME280;40363;52.270;10.546;2023-03-03T12:37:34;78156.56;;;-147.06;81.04
54453;BME280;40363;52.270;10.546;2023-03-03T12:40:09;78150.38;;;-147.06;80.61
54453;BME280;40363;52.270;10.546;2023-03-03T12:42:49;78148.31;;;-147.06;80.50
54453;BME280;40363;52.270;10.546;2023-03-03T12:45:28;78160.66;;;-147.06;80.73
54453;BME280;40363;52.270;10.546;2023-03-03T12:48:00;78150.38;;;-147.06;80.89
54453;BME280;40363;52.270;10.546;2023-03-03T12:50:35;78146.28;;;-147.06;80.68
54453;BME280;40363;52.270;10.546;2023-03-03T12:53:19;78131.88;;;-147.06;81.33